Charleston, SC (29410)

6:05 PM EDT on September 04, 2015 (GMT -0400)
Park Circle | | Change Station
CLOSE
Current Station
Personal Weather Station
Location: North Charleston, SC
Elevation: 20 ft
Nearby Weather Stations

Elev 20 ft 32.89 °N, 79.99 °W | Updated 13 seconds ago

Mostly Cloudy
Mostly Cloudy
79.4 °F
Feels Like 83 °F
N
0.0
Wind Variable Wind from North
Gusts 0.0 mph

Today
High -- | Low -- °F
--% Chance of Precip.
Yesterday
High -- | Low -- °F
Precip. -- in
6:56 AM 7:41 PM
Waning Gibbous, 55% visible
Pressure 29.96 in
Visibility 10.0 miles
Clouds Few 2000 ft
Few 5500 ft
Mostly Cloudy 15000 ft
Heat Index 83 °F
Dew Point 72 °F
Humidity 78%
Rainfall 0.02 in
Snow Depth Not available.
UV 1 out of 12
Pollen 8.30 out of 12
Air Quality Not available.
Flu Activity Not available.
METAR KCHS 042156Z 00000KT 10SM FEW020 FEW055 BKN150 26/20 A2995 RMK AO2 TSE12 SLP143 T02560200
Pressure 29.96 in
Visibility 10.0 miles
Clouds Few 2000 ft
Few 5500 ft
Mostly Cloudy 15000 ft
Heat Index 83 °F
Dew Point 72 °F
Humidity 78%
Rainfall 0.02 in
Snow Depth Not available.
UV 1 out of 12
Pollen 8.30 out of 12
Air Quality Not available.
Flu Activity Not available.
METAR KCHS 042156Z 00000KT 10SM FEW020 FEW055 BKN150 26/20 A2995 RMK AO2 TSE12 SLP143 T02560200

10-Day Weather Forecast

×

Almanac

Astronomy

Sep. 04, 2015 Rise Set
Actual Time
Civil Twilight
Nautical Twilight
Astronomical Twilight
Moon
Length of Visible Light
Length of Day
Tomorrow will be .
, % of the Moon is Illuminated

Today's Extremes

State Highs State Lows

Community

WunderPhotos

Upload Photos

1,852,305 photos uploaded!

WunderBlogs® & News

Nearby

Air Quality

  Air Quality AQ Index Pollutant
Not available.

Snow Depth

Station Depth Elevation

Earthquake Activity

City Distance Mag. Time & Date
Minimum magnitude displayed is 2.5.

Coastal Water Temperatures

Place Temperature

Stations

Nearby Weather Stations

Station Location Temp. Windchill Dew Point Humidity Wind Precip. Elev Updated Type